To NAV CANADA Home Page Login to a new session Search on AWWS site Feedback and Comments Disclaimer Vers la page française équivalente Tips FAQ What's new on the site To the Forecasts and Observations / NOTAM section To "File a Flight Plan" website Publications and other links Update of the User's profile FIC Telephone Numbers My Weather Data Folder Route Weather Data Regional Weather Data Local Weather Data To the Forecasts and Observations / NOTAM section
Request Generated 02/23/2017 at 20:47:36 UTC . Weather information available at that time is displayed.

METAR/TAF

ROBERVAL/QC    

METAR CYRJ 232000Z 34003KT 1/8SM FG VV003 02/02 A2942 RMK FG8 SLP972=
METAR CYRJ 231900Z 34002KT 1/4SM FG VV002 02/02 A2942 RMK FG8 SLP972=
SPECI CYRJ 231840Z VRB02KT 1/2SM -RA FG VV002 02/02 A2943 RMK FG8
SLP975=
SPECI CYRJ 231814Z VRB02KT 5/8SM -RA BR VV002 02/02 A2943 RMK FG8
SLP975=
METAR CYRJ 231800Z 35003KT 1/2SM -RA FG VV001 02/02 A2943 RMK FG8
SLP974=

TAF CYRJ 231938Z 2320/2403 VRB03KT 3/4SM -RA -DZ BR OVC002 TEMPO
2320/2322 6SM BR SCT002 OVC012
FM232200 28010KT 3SM -RA BR BKN007 OVC012 TEMPO 2322/2402 6SM BR
SCT007 OVC015
FM240200 28012KT P6SM BKN020
RMK NXT FCST WILL BE ISSUED AT 241245Z=
Your time UTC time
Weather data provided by Environment Canada and NAV CANADA